Terminal Aerodrome Forecast
Issued by NWS Northern Indiana

Home | Current Version | Previous Version | Text Only | Print | Product List | Glossary Off
Versions: 1 2 3 4 5 6 7 8 9 10 11 12 13 14 15 16

000
FTUS43 KIWX 170300 AAA
TAFFWA
TAF AMD
KFWA 170310Z 1703/1724 26013G23KT 5SM -DZ BR OVC009
     FM170500 27014G21KT P6SM OVC015
     FM171000 27013G20KT P6SM BKN025=

USA.gov is the U.S. government's official web portal to all federal, state and local government web resources and services.